Time;durP1;ratioP1;P1;durP2;ratioP2;P2;SDS_P1;SDS_P2;PMS_P1;PMS_P2;Temp;Humidity;BMP_temperature;BMP_pressure;BME280_temperature;BME280_humidity;BME280_pressure;Samples;Min_cycle;Max_cycle;Signal;HPM_P1;HPM_P2
2021/04/11 00:00:39;;;;;;;5.65;3.42;;;9.00;99.90;;;;;;4981489;28;20042;-58
2021/04/11 00:03:07;;;;;;;5.28;3.58;;;9.00;99.90;;;;;;4992329;28;20034;-59
2021/04/11 00:05:40;;;;;;;9.25;4.32;;;9.00;99.90;;;;;;4990961;28;20040;-57
2021/04/11 00:08:08;;;;;;;8.27;3.65;;;9.00;99.90;;;;;;4988081;28;20047;-58
2021/04/11 00:10:36;;;;;;;11.23;4.25;;;9.00;99.90;;;;;;4995404;28;20476;-57
2021/04/11 00:13:05;;;;;;;7.50;4.07;;;9.00;99.90;;;;;;4999420;28;20072;-58
2021/04/11 00:15:31;;;;;;;6.68;3.55;;;9.00;99.90;;;;;;4992317;28;20061;-60
2021/04/11 00:17:57;;;;;;;7.40;4.00;;;9.00;99.90;;;;;;5000226;28;20038;-58
2021/04/11 00:20:23;;;;;;;7.22;3.92;;;9.00;99.90;;;;;;4999680;28;20030;-60
2021/04/11 00:22:51;;;;;;;8.32;4.75;;;9.00;99.90;;;;;;4999871;28;20081;-61
2021/04/11 00:25:22;;;;;;;7.13;4.00;;;9.00;99.90;;;;;;4990550;28;20027;-58
2021/04/11 00:27:48;;;;;;;5.95;3.70;;;9.00;99.90;;;;;;4986552;28;20093;-58
2021/04/11 00:30:15;;;;;;;10.75;4.07;;;9.00;99.90;;;;;;4992793;28;20578;-59
2021/04/11 00:32:40;;;;;;;9.55;4.28;;;8.90;99.90;;;;;;5000410;28;20116;-57
2021/04/11 00:35:08;;;;;;;5.93;4.15;;;8.90;99.90;;;;;;4987970;28;20102;-57
2021/04/11 00:37:33;;;;;;;8.15;3.90;;;9.00;99.90;;;;;;4985837;28;20034;-58
2021/04/11 00:39:59;;;;;;;7.55;3.92;;;9.00;99.90;;;;;;4990906;28;20030;-58
2021/04/11 00:42:41;;;;;;;9.10;3.83;;;9.00;99.90;;;;;;4994744;28;20033;-58
2021/04/11 00:45:13;;;;;;;6.93;3.67;;;9.00;99.90;;;;;;4991571;28;20487;-57
2021/04/11 00:47:41;;;;;;;5.65;3.80;;;9.00;99.90;;;;;;4994798;28;20083;-57
2021/04/11 00:50:09;;;;;;;8.65;4.53;;;9.00;99.90;;;;;;5001200;28;20495;-60
2021/04/11 00:52:35;;;;;;;7.95;4.07;;;9.00;99.90;;;;;;4996446;28;20154;-57
2021/04/11 00:55:00;;;;;;;9.80;3.83;;;9.10;99.90;;;;;;4991113;28;20105;-59
2021/04/11 00:57:27;;;;;;;6.07;3.95;;;9.10;99.90;;;;;;4990464;28;20506;-58
2021/04/11 00:59:52;;;;;;;10.02;4.15;;;9.10;99.90;;;;;;4995629;28;20112;-60
2021/04/11 01:02:18;;;;;;;9.07;4.18;;;9.10;99.90;;;;;;4981197;28;20583;-58
2021/04/11 01:04:43;;;;;;;9.10;4.38;;;9.10;99.90;;;;;;4987711;28;20403;-58
2021/04/11 01:07:12;;;;;;;9.32;4.15;;;9.10;99.90;;;;;;4990395;28;20270;-59
2021/04/11 01:09:41;;;;;;;8.00;4.18;;;9.10;99.90;;;;;;4992316;28;20030;-58
2021/04/11 01:12:10;;;;;;;6.80;3.90;;;9.10;99.90;;;;;;4999305;28;20045;-58
2021/04/11 01:14:36;;;;;;;10.63;4.32;;;9.10;99.90;;;;;;4990316;28;20026;-59
2021/04/11 01:17:05;;;;;;;8.18;4.45;;;9.10;99.90;;;;;;4993531;28;20023;-58
2021/04/11 01:19:34;;;;;;;6.18;3.97;;;9.10;99.90;;;;;;4998233;28;20026;-58
2021/04/11 01:22:24;;;;;;;5.13;3.70;;;9.10;99.90;;;;;;4991854;28;20026;-59
2021/04/11 01:24:53;;;;;;;6.68;4.45;;;9.10;99.90;;;;;;4998817;28;20655;-58
2021/04/11 01:27:27;;;;;;;5.53;3.60;;;9.10;99.90;;;;;;4997812;28;20062;-59
2021/04/11 01:29:54;;;;;;;6.43;3.88;;;9.10;99.90;;;;;;4997994;28;20033;-59
2021/04/11 01:32:21;;;;;;;5.97;3.80;;;9.10;99.90;;;;;;4995235;28;20038;-58
2021/04/11 01:34:48;;;;;;;10.18;4.18;;;9.10;99.90;;;;;;5004662;28;20053;-58
2021/04/11 01:37:16;;;;;;;9.38;4.20;;;9.10;99.90;;;;;;4989216;28;20029;-59
2021/04/11 01:39:45;;;;;;;5.90;3.85;;;9.10;99.90;;;;;;4992725;28;20026;-59
2021/04/11 01:42:13;;;;;;;7.43;3.75;;;9.10;99.90;;;;;;4992837;28;20073;-59
2021/04/11 01:44:41;;;;;;;6.03;3.72;;;9.10;99.90;;;;;;4993513;28;20049;-59
2021/04/11 01:47:08;;;;;;;8.00;3.70;;;9.20;99.90;;;;;;4991839;28;20037;-59
2021/04/11 01:49:34;;;;;;;8.07;3.70;;;9.20;99.90;;;;;;4995610;28;20033;-60
2021/04/11 01:52:06;;;;;;;6.47;3.45;;;9.20;99.90;;;;;;4988212;28;20034;-60
2021/04/11 01:54:35;;;;;;;5.40;3.80;;;9.30;99.90;;;;;;4990465;28;20031;-58
2021/04/11 01:57:19;;;;;;;5.65;3.90;;;9.30;99.90;;;;;;4993436;28;20033;-59
2021/04/11 01:59:45;;;;;;;5.43;3.80;;;9.30;99.90;;;;;;4987625;28;20092;-58
2021/04/11 02:02:14;;;;;;;7.30;4.00;;;9.30;99.90;;;;;;4945721;28;20047;-59
2021/04/11 02:04:40;;;;;;;5.25;3.33;;;9.30;99.90;;;;;;4984028;28;20085;-58
2021/04/11 02:07:07;;;;;;;6.43;3.90;;;9.30;99.90;;;;;;4970882;28;20577;-59
2021/04/11 02:09:36;;;;;;;5.20;3.70;;;9.30;99.90;;;;;;5004229;28;20034;-61
2021/04/11 02:12:04;;;;;;;8.02;3.60;;;9.30;99.90;;;;;;5000974;28;20023;-60
2021/04/11 02:14:30;;;;;;;12.75;4.15;;;9.30;99.90;;;;;;4995384;28;20054;-57
2021/04/11 02:16:57;;;;;;;6.57;4.00;;;9.30;99.90;;;;;;4995823;28;20672;-58
2021/04/11 02:19:25;;;;;;;5.47;4.18;;;9.30;99.90;;;;;;5001230;28;20030;-57
2021/04/11 02:21:59;;;;;;;7.93;4.20;;;9.30;99.90;;;;;;4996822;28;20173;-57
2021/04/11 02:24:25;;;;;;;6.97;4.35;;;9.30;99.90;;;;;;4993074;28;20026;-56
2021/04/11 02:26:51;;;;;;;9.75;4.45;;;9.30;99.90;;;;;;4992898;28;20852;-58
2021/04/11 02:29:19;;;;;;;6.20;4.03;;;9.30;99.90;;;;;;5000498;28;20026;-59
2021/04/11 02:31:45;;;;;;;7.13;4.25;;;9.30;99.90;;;;;;4997026;28;20657;-58
2021/04/11 02:34:24;;;;;;;6.88;4.68;;;9.30;99.90;;;;;;4994234;28;20105;-58
2021/04/11 02:37:14;;;;;;;7.05;4.50;;;9.30;99.90;;;;;;4993044;28;20411;-59
2021/04/11 02:39:42;;;;;;;6.88;4.18;;;9.30;99.90;;;;;;5003008;28;20041;-59
2021/04/11 02:42:13;;;;;;;8.02;4.78;;;9.30;99.90;;;;;;4991262;28;20474;-59
2021/04/11 02:44:42;;;;;;;6.88;4.50;;;9.30;99.90;;;;;;4996633;28;20025;-58
2021/04/11 02:47:08;;;;;;;5.80;4.22;;;9.30;99.90;;;;;;4991636;28;20030;-59
2021/04/11 02:49:34;;;;;;;7.65;4.25;;;9.30;99.90;;;;;;4998401;28;20038;-60
2021/04/11 02:52:04;;;;;;;7.63;5.13;;;9.30;99.90;;;;;;4990876;28;20030;-58
2021/04/11 02:54:30;;;;;;;8.05;5.00;;;9.30;99.90;;;;;;4999959;28;20448;-59
2021/04/11 02:56:58;;;;;;;8.02;4.40;;;9.30;99.90;;;;;;4972051;28;20061;-59
2021/04/11 02:59:24;;;;;;;7.57;4.68;;;9.30;99.90;;;;;;5004014;28;20037;-58
2021/04/11 03:01:52;;;;;;;7.30;4.65;;;9.30;99.90;;;;;;4980143;28;20042;-58
2021/04/11 03:04:19;;;;;;;11.05;4.43;;;9.30;99.90;;;;;;4993136;28;20157;-58
2021/04/11 03:06:55;;;;;;;10.13;4.90;;;9.30;99.90;;;;;;4983324;28;20022;-59
2021/04/11 03:09:31;;;;;;;8.20;5.20;;;9.30;99.90;;;;;;4988492;28;20030;-58
2021/04/11 03:11:57;;;;;;;10.23;5.80;;;9.40;99.90;;;;;;4992166;28;20030;-57
2021/04/11 03:14:28;;;;;;;8.25;4.60;;;9.30;99.90;;;;;;4993285;28;20030;-58
2021/04/11 03:16:54;;;;;;;7.72;5.13;;;9.30;99.90;;;;;;4997987;28;20027;-58
2021/04/11 03:19:25;;;;;;;9.30;4.90;;;9.40;99.90;;;;;;4999345;28;20034;-58
2021/04/11 03:21:51;;;;;;;11.30;5.22;;;9.40;99.90;;;;;;4997802;28;20030;-57
2021/04/11 03:24:17;;;;;;;10.35;4.72;;;9.40;99.90;;;;;;4992551;28;20033;-59
2021/04/11 03:27:05;;;;;;;9.48;4.80;;;9.40;99.90;;;;;;4997584;28;20029;-57
2021/04/11 03:29:40;;;;;;;9.35;4.70;;;9.40;99.90;;;;;;4994978;28;20088;-55
2021/04/11 03:32:12;;;;;;;5.72;4.10;;;9.50;99.90;;;;;;4992072;28;20839;-59
2021/04/11 03:34:41;;;;;;;8.77;5.00;;;9.50;99.90;;;;;;4996486;28;20116;-58
2021/04/11 03:37:09;;;;;;;7.20;4.88;;;9.50;99.90;;;;;;4993596;28;20044;-60
2021/04/11 03:39:35;;;;;;;9.43;5.05;;;9.50;99.90;;;;;;5001555;28;20056;-57
2021/04/11 03:42:10;;;;;;;6.40;4.88;;;9.50;99.90;;;;;;4993563;28;20033;-59
2021/04/11 03:44:36;;;;;;;10.25;5.60;;;9.50;99.90;;;;;;4997480;28;20034;-59
2021/04/11 03:47:09;;;;;;;9.10;5.65;;;9.40;99.90;;;;;;4992420;28;20037;-59
2021/04/11 03:50:01;;;;;;;10.07;6.07;;;9.40;99.90;;;;;;5000604;28;20041;-58
2021/04/11 03:52:35;;;;;;;10.60;7.03;;;9.40;99.90;;;;;;4994751;28;20026;-58
2021/04/11 03:55:07;;;;;;;7.93;7.00;;;9.40;99.90;;;;;;4999084;28;20026;-59
2021/04/11 03:57:49;;;;;;;10.13;7.63;;;9.40;99.90;;;;;;5000942;28;20490;-58
2021/04/11 04:00:24;;;;;;;12.55;7.43;;;9.40;99.90;;;;;;4978422;28;20033;-58
2021/04/11 04:02:53;;;;;;;10.07;7.53;;;9.40;99.90;;;;;;4997780;28;20030;-60
2021/04/11 04:05:22;;;;;;;13.13;7.82;;;9.40;99.90;;;;;;4984249;28;20039;-57
2021/04/11 04:07:51;;;;;;;13.50;8.77;;;9.40;99.90;;;;;;4992629;28;20068;-58
2021/04/11 04:10:19;;;;;;;14.50;9.05;;;9.40;99.90;;;;;;5002917;28;20026;-60
2021/04/11 04:12:59;;;;;;;12.60;8.73;;;9.40;99.90;;;;;;4987359;28;20061;-58
2021/04/11 04:15:43;;;;;;;14.48;8.85;;;9.30;99.90;;;;;;4986032;28;20030;-60
2021/04/11 04:18:31;;;;;;;13.15;9.00;;;9.40;99.90;;;;;;4989408;28;20030;-58
2021/04/11 04:21:15;;;;;;;10.52;8.55;;;9.30;99.90;;;;;;4990140;28;20034;-60
2021/04/11 04:23:41;;;;;;;10.43;8.35;;;9.30;99.90;;;;;;5000211;28;20399;-59
2021/04/11 04:26:31;;;;;;;8.43;7.00;;;9.30;99.90;;;;;;5002526;28;20034;-58
2021/04/11 04:29:06;;;;;;;12.10;8.45;;;9.30;99.90;;;;;;5000826;28;20483;-54
2021/04/11 04:31:46;;;;;;;8.10;7.00;;;9.20;99.90;;;;;;4992880;28;20034;-58
2021/04/11 04:34:52;;;;;;;8.65;7.32;;;9.20;99.90;;;;;;4996671;28;20506;-60
2021/04/11 04:37:45;;;;;;;9.07;6.75;;;9.10;99.90;;;;;;5007295;28;20642;-58
2021/04/11 04:40:35;;;;;;;6.93;6.22;;;9.00;99.90;;;;;;5000263;28;20029;-60
2021/04/11 04:43:03;;;;;;;8.18;6.50;;;8.90;99.90;;;;;;4989760;28;20030;-57
2021/04/11 04:45:41;;;;;;;8.75;7.10;;;8.80;99.90;;;;;;4986354;28;20033;-58
2021/04/11 04:48:22;;;;;;;9.90;8.15;;;8.80;99.90;;;;;;4996115;28;20044;-58
2021/04/11 04:50:58;;;;;;;9.98;8.57;;;8.70;99.90;;;;;;4988724;28;20019;-58
2021/04/11 04:53:28;;;;;;;10.00;8.73;;;8.60;99.90;;;;;;4990832;28;20057;-58
2021/04/11 04:55:57;;;;;;;10.25;8.57;;;8.60;99.90;;;;;;4994086;28;20081;-58
2021/04/11 04:58:30;;;;;;;12.90;9.82;;;8.60;99.90;;;;;;4999985;28;20030;-59
2021/04/11 05:01:18;;;;;;;12.45;10.68;;;8.60;99.90;;;;;;4979602;28;20080;-59
2021/04/11 05:03:51;;;;;;;13.50;10.98;;;8.50;99.90;;;;;;4990621;28;20030;-59
2021/04/11 05:06:20;;;;;;;14.77;12.35;;;8.50;99.90;;;;;;4990409;28;20488;-59
2021/04/11 05:08:55;;;;;;;18.42;14.60;;;8.40;99.90;;;;;;5000178;28;20030;-59
2021/04/11 05:11:26;;;;;;;16.55;13.60;;;8.40;99.90;;;;;;4989126;28;20400;-59
2021/04/11 05:14:02;;;;;;;21.25;16.55;;;8.40;99.90;;;;;;4992317;28;20095;-58
2021/04/11 05:16:53;;;;;;;21.55;15.90;;;8.40;99.90;;;;;;4988283;28;20832;-58
2021/04/11 05:19:38;;;;;;;21.27;17.48;;;8.40;99.90;;;;;;4989023;28;20066;-58
2021/04/11 05:22:22;;;;;;;21.77;16.83;;;8.40;99.90;;;;;;4995308;28;20030;-60
2021/04/11 05:24:52;;;;;;;25.48;16.92;;;8.40;99.90;;;;;;4987455;28;20030;-60
2021/04/11 05:27:31;;;;;;;18.50;13.65;;;8.30;99.90;;;;;;4999493;28;20053;-58
2021/04/11 05:30:03;;;;;;;14.45;11.60;;;8.30;99.90;;;;;;4993215;28;20030;-59
2021/04/11 05:32:30;;;;;;;15.43;10.90;;;8.20;99.90;;;;;;4996122;28;20045;-60
2021/04/11 05:34:59;;;;;;;16.13;10.88;;;8.00;99.90;;;;;;5000449;28;20424;-58
2021/04/11 05:38:00;;;;;;;12.65;9.75;;;7.90;99.90;;;;;;4999480;28;20045;-58
2021/04/11 05:40:31;;;;;;;16.58;10.95;;;7.90;99.90;;;;;;4991000;28;20049;-57
2021/04/11 05:43:15;;;;;;;13.30;9.73;;;7.60;99.90;;;;;;5006248;28;20080;-58
2021/04/11 05:45:54;;;;;;;13.85;9.82;;;7.50;99.90;;;;;;4989345;28;20030;-59
2021/04/11 05:48:31;;;;;;;17.10;10.90;;;7.50;99.90;;;;;;4994198;28;20487;-61
2021/04/11 05:51:32;;;;;;;19.83;13.02;;;7.40;99.90;;;;;;4990367;28;20097;-60
2021/04/11 05:54:16;;;;;;;19.85;14.50;;;7.40;99.90;;;;;;4996935;28;20034;-59
2021/04/11 05:56:46;;;;;;;22.40;16.45;;;7.30;99.90;;;;;;4992085;28;20113;-60
2021/04/11 05:59:37;;;;;;;22.67;16.80;;;7.10;99.90;;;;;;5004883;28;20033;-60
2021/04/11 06:02:04;;;;;;;19.40;14.65;;;7.00;99.90;;;;;;4969833;28;20392;-59
2021/04/11 06:04:34;;;;;;;18.25;13.60;;;6.90;99.90;;;;;;4998590;28;20061;-60
2021/04/11 06:07:15;;;;;;;17.88;13.73;;;6.90;99.90;;;;;;4994048;28;20070;-60
2021/04/11 06:10:09;;;;;;;16.27;12.63;;;6.90;99.90;;;;;;5001247;28;20495;-59
2021/04/11 06:12:57;;;;;;;14.85;11.98;;;7.00;99.90;;;;;;4990103;28;20041;-59
2021/04/11 06:15:44;;;;;;;14.45;11.50;;;6.90;99.90;;;;;;4985660;28;20034;-59
2021/04/11 06:18:10;;;;;;;13.50;10.45;;;6.80;99.90;;;;;;4996724;28;20045;-59
2021/04/11 06:20:37;;;;;;;13.43;10.13;;;6.70;99.90;;;;;;4991149;28;20034;-59
2021/04/11 06:23:24;;;;;;;13.98;10.23;;;6.70;99.90;;;;;;4998015;28;20040;-59
2021/04/11 06:26:05;;;;;;;13.63;9.70;;;6.60;99.90;;;;;;5001471;28;20538;-59
2021/04/11 06:29:00;;;;;;;17.58;11.95;;;6.60;99.90;;;;;;4996061;28;20029;-59
2021/04/11 06:31:32;;;;;;;19.52;12.32;;;6.60;99.90;;;;;;4988714;28;20117;-58
2021/04/11 06:34:06;;;;;;;17.73;12.00;;;6.50;99.90;;;;;;4997755;28;20037;-57
2021/04/11 06:36:38;;;;;;;20.20;12.70;;;6.50;99.90;;;;;;5001584;28;20503;-59
2021/04/11 06:39:09;;;;;;;19.50;12.95;;;6.40;99.90;;;;;;4995961;28;20449;-58
2021/04/11 06:41:38;;;;;;;18.63;12.77;;;6.40;99.90;;;;;;4989373;28;20038;-58
2021/04/11 06:44:28;;;;;;;20.65;14.23;;;6.40;99.90;;;;;;4998474;28;20026;-58
2021/04/11 06:47:25;;;;;;;23.58;15.23;;;6.20;99.90;;;;;;4995963;28;20029;-58
2021/04/11 06:50:28;;;;;;;22.65;15.80;;;6.10;99.90;;;;;;4990905;28;20061;-59
2021/04/11 06:53:04;;;;;;;23.05;15.82;;;6.20;99.90;;;;;;4997243;28;20026;-59
2021/04/11 06:55:35;;;;;;;23.00;15.82;;;6.10;99.90;;;;;;4998532;28;20113;-59
2021/04/11 06:58:07;;;;;;;24.15;18.40;;;6.10;99.90;;;;;;5001051;28;20045;-60
2021/04/11 07:00:42;;;;;;;23.92;17.50;;;6.00;99.90;;;;;;4998354;28;20054;-60
2021/04/11 07:03:32;;;;;;;25.65;18.67;;;6.00;99.90;;;;;;4990534;28;20057;-62
2021/04/11 07:06:22;;;;;;;25.17;17.48;;;5.90;99.90;;;;;;5009301;28;20034;-60
2021/04/11 07:09:06;;;;;;;24.55;17.85;;;5.80;99.90;;;;;;5009028;28;20042;-57
2021/04/11 07:11:34;;;;;;;29.58;19.92;;;5.90;99.90;;;;;;4997224;28;20027;-59
2021/04/11 07:14:31;;;;;;;28.27;20.33;;;5.80;99.90;;;;;;5002115;28;20030;-59
2021/04/11 07:17:25;;;;;;;28.23;18.20;;;5.70;99.90;;;;;;5008083;28;20033;-60
2021/04/11 07:20:15;;;;;;;31.65;21.67;;;5.60;99.90;;;;;;4992405;28;20025;-59
2021/04/11 07:23:10;;;;;;;29.88;20.45;;;5.60;99.90;;;;;;5004159;28;20034;-58
2021/04/11 07:25:47;;;;;;;35.55;23.95;;;5.60;99.90;;;;;;4993234;28;20111;-60
2021/04/11 07:28:48;;;;;;;35.78;22.00;;;5.60;99.90;;;;;;4987921;28;20475;-61
2021/04/11 07:31:47;;;;;;;35.60;23.38;;;5.60;99.90;;;;;;4982674;28;20435;-60
2021/04/11 07:34:43;;;;;;;47.25;20.95;;;5.60;99.90;;;;;;4996722;28;20022;-59
2021/04/11 07:37:42;;;;;;;31.23;21.35;;;5.60;99.90;;;;;;4999453;28;20030;-59
2021/04/11 07:40:40;;;;;;;30.08;18.77;;;5.60;99.90;;;;;;5000212;28;20077;-61
2021/04/11 07:43:24;;;;;;;27.73;18.73;;;5.60;99.90;;;;;;5000730;28;20029;-58
2021/04/11 07:46:04;;;;;;;28.75;19.70;;;5.60;99.90;;;;;;4991342;28;20023;-60
2021/04/11 07:48:45;;;;;;;31.73;19.95;;;5.50;99.90;;;;;;5003720;28;20513;-58
2021/04/11 07:51:13;;;;;;;26.70;18.25;;;5.60;99.90;;;;;;4991768;28;20076;-59
2021/04/11 07:54:13;;;;;;;31.65;19.52;;;5.60;99.90;;;;;;4996739;28;20596;-59
2021/04/11 07:57:09;;;;;;;33.85;21.65;;;5.60;99.90;;;;;;4991092;28;20038;-61
2021/04/11 07:59:50;;;;;;;31.38;19.83;;;5.50;99.90;;;;;;4996514;28;20026;-59
2021/04/11 08:02:48;;;;;;;31.17;19.15;;;5.60;99.90;;;;;;4969812;28;20166;-59
2021/04/11 08:05:14;;;;;;;30.08;19.75;;;5.50;99.90;;;;;;4986725;28;20041;-58
2021/04/11 08:08:18;;;;;;;28.45;18.35;;;5.50;99.90;;;;;;4992722;28;20027;-59
2021/04/11 08:11:34;;;;;;;23.53;15.47;;;5.60;99.90;;;;;;4995408;28;20026;-59
2021/04/11 08:14:25;;;;;;;25.42;15.93;;;5.50;99.90;;;;;;4981158;28;20381;-59
2021/04/11 08:17:10;;;;;;;20.05;13.63;;;5.60;99.90;;;;;;4991068;28;20054;-60
2021/04/11 08:20:01;;;;;;;21.20;13.23;;;5.60;99.90;;;;;;4972740;28;20461;-59
2021/04/11 08:22:59;;;;;;;20.23;13.50;;;5.60;99.90;;;;;;4986822;28;20034;-58
2021/04/11 08:25:49;;;;;;;17.88;13.23;;;5.50;99.90;;;;;;4984913;28;20061;-58
2021/04/11 08:28:43;;;;;;;17.15;11.32;;;5.60;99.90;;;;;;4993911;28;20100;-59
2021/04/11 08:31:24;;;;;;;12.43;9.63;;;5.60;99.90;;;;;;4998233;28;20026;-60
2021/04/11 08:33:53;;;;;;;14.18;10.15;;;5.60;99.90;;;;;;5000901;28;20050;-60
2021/04/11 08:36:42;;;;;;;13.98;9.32;;;5.60;99.90;;;;;;5000479;28;20534;-60
2021/04/11 08:39:45;;;;;;;18.35;10.60;;;5.60;99.90;;;;;;4996459;28;20080;-59
2021/04/11 08:42:42;;;;;;;12.10;8.65;;;5.70;99.90;;;;;;4999816;28;20041;-60
2021/04/11 08:45:24;;;;;;;11.65;8.70;;;5.80;99.90;;;;;;4990173;28;20026;-60
2021/04/11 08:48:32;;;;;;;12.15;8.85;;;5.60;99.90;;;;;;4999721;28;20026;-59
2021/04/11 08:51:25;;;;;;;10.95;7.97;;;5.60;99.90;;;;;;4995349;28;20102;-58
2021/04/11 08:54:09;;;;;;;8.32;6.47;;;5.60;99.90;;;;;;5001692;28;20145;-59
2021/04/11 08:56:40;;;;;;;8.20;6.32;;;5.60;99.90;;;;;;4987402;28;20061;-59
2021/04/11 08:59:21;;;;;;;8.52;6.03;;;5.80;99.90;;;;;;5005096;28;20548;-59
2021/04/11 09:02:25;;;;;;;7.03;5.57;;;5.80;99.90;;;;;;4989568;28;20447;-60
2021/04/11 09:05:09;;;;;;;6.70;5.47;;;5.70;99.90;;;;;;4939243;29;20596;-59
2021/04/11 09:08:00;;;;;;;5.60;4.32;;;5.90;99.90;;;;;;4914199;29;20031;-59
2021/04/11 09:10:44;;;;;;;6.47;4.50;;;6.00;99.90;;;;;;4969261;28;20082;-58
2021/04/11 09:13:39;;;;;;;5.38;3.83;;;6.10;99.90;;;;;;4998633;28;20042;-58
2021/04/11 09:16:25;;;;;;;6.47;4.63;;;6.00;99.90;;;;;;4993050;28;20562;-58
2021/04/11 09:19:14;;;;;;;6.70;5.10;;;6.00;99.90;;;;;;4996622;28;20057;-58
2021/04/11 09:22:00;;;;;;;5.85;4.68;;;6.00;99.90;;;;;;4988882;28;20026;-58
2021/04/11 09:24:41;;;;;;;6.32;5.00;;;6.10;99.90;;;;;;4990524;28;20057;-58
2021/04/11 09:27:39;;;;;;;5.60;4.78;;;6.00;99.90;;;;;;4999823;28;20097;-60
2021/04/11 09:30:09;;;;;;;7.32;5.07;;;6.00;99.90;;;;;;5001387;28;20030;-59
2021/04/11 09:32:53;;;;;;;5.93;4.63;;;6.00;99.90;;;;;;5009201;28;20081;-58
2021/04/11 09:35:36;;;;;;;6.47;4.75;;;5.80;99.90;;;;;;5001974;28;20109;-57
2021/04/11 09:38:14;;;;;;;5.20;4.37;;;5.80;99.90;;;;;;4997896;28;20060;-57
2021/04/11 09:41:17;;;;;;;6.20;4.53;;;5.80;99.90;;;;;;4996411;28;20273;-57
2021/04/11 09:44:10;;;;;;;5.43;4.22;;;5.70;99.90;;;;;;4994573;28;20026;-56
2021/04/11 09:46:43;;;;;;;7.97;4.80;;;5.70;99.90;;;;;;4984112;28;20027;-59
2021/04/11 09:49:46;;;;;;;4.65;3.58;;;5.80;99.90;;;;;;4989690;28;20050;-57
2021/04/11 09:52:20;;;;;;;3.90;3.47;;;6.10;99.90;;;;;;4996425;28;20030;-58
2021/04/11 09:54:49;;;;;;;4.95;4.05;;;6.00;99.90;;;;;;4993920;28;20060;-59
2021/04/11 09:57:41;;;;;;;4.45;4.05;;;6.10;99.90;;;;;;4992038;28;20025;-60
2021/04/11 10:00:33;;;;;;;7.60;4.22;;;5.80;99.90;;;;;;4998928;28;20037;-58
2021/04/11 10:03:18;;;;;;;6.78;3.90;;;5.90;99.90;;;;;;4979646;28;20128;-60
2021/04/11 10:06:04;;;;;;;6.03;4.40;;;5.70;99.90;;;;;;4990482;28;20037;-59
2021/04/11 10:08:57;;;;;;;4.90;3.97;;;5.60;99.90;;;;;;4994785;28;20045;-57
2021/04/11 10:11:41;;;;;;;5.15;4.18;;;5.70;99.90;;;;;;4990690;28;20361;-58
2021/04/11 10:14:35;;;;;;;4.05;3.22;;;5.60;99.90;;;;;;4998612;28;20044;-59
2021/04/11 10:17:29;;;;;;;4.78;3.65;;;5.70;99.90;;;;;;4993193;28;20049;-58
2021/04/11 10:20:12;;;;;;;4.70;3.60;;;5.70;99.90;;;;;;4999641;28;20038;-57
2021/04/11 10:22:56;;;;;;;5.80;3.83;;;5.60;99.90;;;;;;5000296;28;20445;-60
2021/04/11 10:25:51;;;;;;;4.95;3.78;;;5.70;99.90;;;;;;4993546;28;20030;-58
2021/04/11 10:28:49;;;;;;;5.80;3.97;;;5.60;99.90;;;;;;5001642;28;20038;-59
2021/04/11 10:31:35;;;;;;;4.63;4.05;;;5.60;99.90;;;;;;4993183;28;20049;-60
2021/04/11 10:34:10;;;;;;;5.30;4.35;;;5.50;99.90;;;;;;4996919;28;20121;-59
2021/04/11 10:36:44;;;;;;;4.72;4.00;;;5.40;99.90;;;;;;5000434;28;20034;-58
2021/04/11 10:39:35;;;;;;;6.65;4.63;;;5.40;99.90;;;;;;5001565;28;20029;-59
2021/04/11 10:42:22;;;;;;;6.78;5.45;;;5.40;99.90;;;;;;5001321;28;20120;-60
2021/04/11 10:45:15;;;;;;;6.75;5.65;;;5.30;99.90;;;;;;4989797;28;20027;-58
2021/04/11 10:47:50;;;;;;;8.60;6.53;;;5.40;99.90;;;;;;5001743;28;20476;-58
2021/04/11 10:50:21;;;;;;;7.32;5.95;;;5.40;99.90;;;;;;4989003;28;20054;-59
2021/04/11 10:53:17;;;;;;;7.28;5.63;;;5.60;99.90;;;;;;4994832;28;20154;-58
2021/04/11 10:56:33;;;;;;;7.72;6.30;;;5.60;99.90;;;;;;4990958;28;20514;-59
2021/04/11 10:59:29;;;;;;;8.30;5.75;;;5.60;99.90;;;;;;4906970;29;20025;-57
2021/04/11 11:02:05;;;;;;;8.50;5.95;;;5.90;99.90;;;;;;4906213;29;20665;-58
2021/04/11 11:04:55;;;;;;;8.55;6.88;;;5.80;99.90;;;;;;4971769;28;20125;-58
2021/04/11 11:07:39;;;;;;;7.25;5.88;;;5.90;99.90;;;;;;4991073;28;20026;-58
2021/04/11 11:10:14;;;;;;;6.30;5.35;;;5.80;99.90;;;;;;4994154;28;20024;-58
2021/04/11 11:12:57;;;;;;;6.22;5.07;;;6.10;99.90;;;;;;4993688;28;20105;-59
2021/04/11 11:15:43;;;;;;;7.22;5.68;;;6.10;99.90;;;;;;4990092;28;20030;-59
2021/04/11 11:18:15;;;;;;;7.53;6.10;;;6.20;99.90;;;;;;4974028;28;20038;-58
2021/04/11 11:21:08;;;;;;;7.82;6.20;;;6.20;99.90;;;;;;4990377;28;20069;-59
2021/04/11 11:24:04;;;;;;;8.27;6.13;;;6.20;99.90;;;;;;4997538;28;20038;-60
2021/04/11 11:26:57;;;;;;;6.57;5.35;;;6.10;99.90;;;;;;4989949;28;20288;-57
2021/04/11 11:29:47;;;;;;;8.75;5.47;;;5.90;99.90;;;;;;4989965;28;20065;-59
2021/04/11 11:32:50;;;;;;;6.13;4.65;;;5.90;99.90;;;;;;4998268;28;20424;-59
2021/04/11 11:35:17;;;;;;;11.15;5.60;;;5.80;99.90;;;;;;4992424;28;20034;-59
2021/04/11 11:38:11;;;;;;;5.28;4.25;;;5.80;99.90;;;;;;4982583;28;20056;-59
2021/04/11 11:40:45;;;;;;;6.30;4.20;;;6.00;99.90;;;;;;4979560;28;20038;-58
2021/04/11 11:43:32;;;;;;;5.20;4.28;;;6.10;99.90;;;;;;4986490;28;20208;-59
2021/04/11 11:46:03;;;;;;;3.75;3.35;;;6.30;99.90;;;;;;4980250;28;20026;-59
2021/04/11 11:48:41;;;;;;;4.88;4.10;;;6.10;99.90;;;;;;4989958;28;20411;-58
2021/04/11 11:51:16;;;;;;;5.60;4.43;;;6.00;99.90;;;;;;4981799;28;20045;-60
2021/04/11 11:53:57;;;;;;;5.82;4.40;;;6.10;99.90;;;;;;5002427;28;20022;-59
2021/04/11 11:56:29;;;;;;;6.13;4.95;;;6.10;99.90;;;;;;4987315;28;20030;-60
2021/04/11 11:59:31;;;;;;;4.70;4.00;;;6.10;99.90;;;;;;4995922;28;20040;-59
2021/04/11 12:02:09;;;;;;;5.25;4.47;;;6.30;99.90;;;;;;4988019;28;20563;-59
2021/04/11 12:05:04;;;;;;;5.55;4.50;;;6.30;99.90;;;;;;4987151;28;20680;-60
2021/04/11 12:07:57;;;;;;;;;;;6.30;99.90;;;;;;4983819;28;20026;-59
2021/04/11 12:10:25;;;;;;;6.53;4.13;;;6.10;99.90;;;;;;4989607;28;20004;-59
2021/04/11 12:13:17;;;;;;;5.65;4.45;;;6.10;99.90;;;;;;4993044;28;20405;-60
2021/04/11 12:16:02;;;;;;;4.70;3.60;;;6.10;99.90;;;;;;4988275;28;20113;-58
2021/04/11 12:18:43;;;;;;;5.30;4.15;;;5.90;99.90;;;;;;4991525;28;20034;-59
2021/04/11 12:21:28;;;;;;;4.85;3.85;;;5.70;99.90;;;;;;4988268;28;20116;-60
2021/04/11 12:24:16;;;;;;;5.40;4.57;;;5.80;99.90;;;;;;4988381;28;20792;-59
2021/04/11 12:26:49;;;;;;;4.57;3.85;;;5.90;99.90;;;;;;4997950;28;20028;-58
2021/04/11 12:29:20;;;;;;;4.82;3.88;;;5.80;99.90;;;;;;4991704;28;20022;-58
2021/04/11 12:31:59;;;;;;;5.65;4.13;;;5.80;99.90;;;;;;4995911;28;20025;-58
2021/04/11 12:34:43;;;;;;;4.05;3.45;;;5.90;99.90;;;;;;4969424;28;20050;-57
2021/04/11 12:37:50;;;;;;;3.75;3.20;;;5.90;99.90;;;;;;4999388;28;20050;-59
2021/04/11 12:40:38;;;;;;;4.07;3.53;;;6.10;99.90;;;;;;4987051;28;20042;-58
2021/04/11 12:43:17;;;;;;;4.20;3.00;;;5.80;99.90;;;;;;4990683;28;20080;-59
2021/04/11 12:45:59;;;;;;;3.88;3.05;;;5.80;99.90;;;;;;4991389;28;20026;-59
2021/04/11 12:48:33;;;;;;;3.35;2.25;;;5.80;99.90;;;;;;4993023;28;20040;-57
2021/04/11 12:51:31;;;;;;;;;;;5.80;99.90;;;;;;4996012;28;20022;-59
2021/04/11 12:54:15;;;;;;;2.40;2.20;;;5.90;99.90;;;;;;4957257;28;19942;-59
2021/04/11 12:56:53;;;;;;;4.50;1.90;;;6.10;99.90;;;;;;4984010;28;20030;-59
2021/04/11 12:59:28;;;;;;;5.03;3.53;;;6.20;99.90;;;;;;4985728;28;20041;-58
2021/04/11 13:02:04;;;;;;;1.73;1.42;;;6.20;99.90;;;;;;4988107;28;20036;-58
2021/04/11 13:04:41;;;;;;;3.67;2.78;;;6.40;99.90;;;;;;4979979;28;20038;-58
2021/04/11 13:07:23;;;;;;;2.55;2.20;;;6.20;99.90;;;;;;4982013;28;20053;-57
2021/04/11 13:10:23;;;;;;;2.42;2.20;;;5.80;99.90;;;;;;5002171;28;20069;-58
2021/04/11 13:12:51;;;;;;;3.17;1.92;;;5.90;99.90;;;;;;4986095;28;20034;-55
2021/04/11 13:15:42;;;;;;;1.88;1.67;;;6.00;99.90;;;;;;4986576;28;20117;-59
2021/04/11 13:18:31;;;;;;;1.65;1.40;;;6.20;99.90;;;;;;4988874;28;20073;-59
2021/04/11 13:21:07;;;;;;;1.35;1.25;;;6.30;99.90;;;;;;4975018;28;20089;-59
2021/04/11 13:24:14;;;;;;;1.40;1.30;;;6.20;99.90;;;;;;4992567;28;20129;-58
2021/04/11 13:26:57;;;;;;;1.75;1.50;;;6.50;99.90;;;;;;4990270;28;20061;-58
2021/04/11 13:29:59;;;;;;;0.98;0.90;;;6.60;99.90;;;;;;4997091;28;20034;-58
2021/04/11 13:32:45;;;;;;;2.42;1.00;;;6.60;99.90;;;;;;4986390;28;20019;-58
2021/04/11 13:35:40;;;;;;;1.25;0.90;;;6.50;99.90;;;;;;4993086;28;20037;-59
2021/04/11 13:38:24;;;;;;;;;;;6.20;99.90;;;;;;5002823;28;20018;-59
2021/04/11 13:40:50;;;;;;;1.20;0.90;;;6.40;99.90;;;;;;4988086;28;19913;-60
2021/04/11 13:43:30;;;;;;;1.75;1.38;;;6.40;99.90;;;;;;5000487;28;20104;-58
2021/04/11 13:46:20;;;;;;;2.45;1.52;;;6.20;99.90;;;;;;4989840;28;20030;-60
2021/04/11 13:49:20;;;;;;;1.80;1.40;;;6.20;99.90;;;;;;5002313;28;20049;-58
2021/04/11 13:52:00;;;;;;;1.58;1.30;;;6.30;99.90;;;;;;4988384;28;20034;-59
2021/04/11 13:54:46;;;;;;;3.45;1.75;;;6.30;99.90;;;;;;4989582;28;20031;-58